sensor_id;sensor_type;location;lat;lon;timestamp;P1;durP1;ratioP1;P2;durP2;ratioP2
7377;SDS011;3730;50.856;12.776;2023-03-23T00:01:02;4.57;;;1.00;;
7377;SDS011;3730;50.856;12.776;2023-03-23T00:03:29;2.00;;;1.10;;
7377;SDS011;3730;50.856;12.776;2023-03-23T00:05:57;1.27;;;1.07;;
7377;SDS011;3730;50.856;12.776;2023-03-23T00:08:29;1.20;;;0.90;;
7377;SDS011;3730;50.856;12.776;2023-03-23T00:10:56;3.23;;;1.27;;
7377;SDS011;3730;50.856;12.776;2023-03-23T00:13:25;3.60;;;1.20;;
7377;SDS011;3730;50.856;12.776;2023-03-23T00:15:51;1.63;;;0.90;;
7377;SDS011;3730;50.856;12.776;2023-03-23T00:18:17;0.80;;;0.80;;
7377;SDS011;3730;50.856;12.776;2023-03-23T00:20:50;1.40;;;1.10;;
7377;SDS011;3730;50.856;12.776;2023-03-23T00:23:21;1.10;;;0.97;;
7377;SDS011;3730;50.856;12.776;2023-03-23T00:25:49;0.97;;;0.80;;
7377;SDS011;3730;50.856;12.776;2023-03-23T00:28:21;2.33;;;0.90;;
7377;SDS011;3730;50.856;12.776;2023-03-23T00:31:02;1.83;;;1.10;;
7377;SDS011;3730;50.856;12.776;2023-03-23T00:33:31;0.93;;;0.93;;
7377;SDS011;3730;50.856;12.776;2023-03-23T00:36:03;1.10;;;0.90;;
7377;SDS011;3730;50.856;12.776;2023-03-23T00:38:30;0.70;;;0.70;;
7377;SDS011;3730;50.856;12.776;2023-03-23T00:40:56;2.37;;;1.07;;
7377;SDS011;3730;50.856;12.776;2023-03-23T00:43:22;1.53;;;1.13;;
7377;SDS011;3730;50.856;12.776;2023-03-23T00:45:49;2.17;;;0.90;;
7377;SDS011;3730;50.856;12.776;2023-03-23T00:48:20;1.17;;;1.00;;
7377;SDS011;3730;50.856;12.776;2023-03-23T00:50:47;1.17;;;0.97;;
7377;SDS011;3730;50.856;12.776;2023-03-23T00:53:13;1.43;;;0.80;;
7377;SDS011;3730;50.856;12.776;2023-03-23T00:55:43;1.43;;;0.80;;
7377;SDS011;3730;50.856;12.776;2023-03-23T00:58:10;1.03;;;0.90;;
7377;SDS011;3730;50.856;12.776;2023-03-23T01:00:37;1.10;;;1.00;;
7377;SDS011;3730;50.856;12.776;2023-03-23T01:03:03;1.43;;;1.00;;
7377;SDS011;3730;50.856;12.776;2023-03-23T01:05:29;0.90;;;0.90;;
7377;SDS011;3730;50.856;12.776;2023-03-23T01:08:03;0.80;;;0.80;;
7377;SDS011;3730;50.856;12.776;2023-03-23T01:10:29;1.27;;;0.90;;
7377;SDS011;3730;50.856;12.776;2023-03-23T01:12:58;0.80;;;0.80;;
7377;SDS011;3730;50.856;12.776;2023-03-23T01:15:25;2.10;;;0.90;;
7377;SDS011;3730;50.856;12.776;2023-03-23T01:17:51;1.77;;;0.87;;
7377;SDS011;3730;50.856;12.776;2023-03-23T01:20:17;0.80;;;0.80;;
7377;SDS011;3730;50.856;12.776;2023-03-23T01:22:43;1.00;;;0.83;;
7377;SDS011;3730;50.856;12.776;2023-03-23T01:25:09;1.27;;;1.17;;
7377;SDS011;3730;50.856;12.776;2023-03-23T01:27:36;1.43;;;0.70;;
7377;SDS011;3730;50.856;12.776;2023-03-23T01:30:04;0.70;;;0.70;;
7377;SDS011;3730;50.856;12.776;2023-03-23T01:32:30;0.90;;;0.80;;
7377;SDS011;3730;50.856;12.776;2023-03-23T01:34:57;0.97;;;0.80;;
7377;SDS011;3730;50.856;12.776;2023-03-23T01:37:22;1.57;;;1.00;;
7377;SDS011;3730;50.856;12.776;2023-03-23T01:39:51;1.17;;;0.80;;
7377;SDS011;3730;50.856;12.776;2023-03-23T01:42:20;1.87;;;0.70;;
7377;SDS011;3730;50.856;12.776;2023-03-23T01:47:16;1.10;;;0.80;;
7377;SDS011;3730;50.856;12.776;2023-03-23T01:49:48;1.60;;;1.10;;
7377;SDS011;3730;50.856;12.776;2023-03-23T01:52:19;0.97;;;0.83;;
7377;SDS011;3730;50.856;12.776;2023-03-23T01:54:50;0.90;;;0.90;;
7377;SDS011;3730;50.856;12.776;2023-03-23T01:57:18;2.87;;;1.00;;
7377;SDS011;3730;50.856;12.776;2023-03-23T01:59:47;1.67;;;0.80;;
7377;SDS011;3730;50.856;12.776;2023-03-23T02:02:16;1.00;;;0.90;;
7377;SDS011;3730;50.856;12.776;2023-03-23T02:04:45;1.70;;;0.90;;
7377;SDS011;3730;50.856;12.776;2023-03-23T02:07:11;0.70;;;0.70;;
7377;SDS011;3730;50.856;12.776;2023-03-23T02:09:40;2.33;;;1.00;;
7377;SDS011;3730;50.856;12.776;2023-03-23T02:12:06;2.70;;;0.97;;
7377;SDS011;3730;50.856;12.776;2023-03-23T02:14:31;2.60;;;0.93;;
7377;SDS011;3730;50.856;12.776;2023-03-23T02:17:00;2.00;;;1.00;;
7377;SDS011;3730;50.856;12.776;2023-03-23T02:19:54;1.20;;;1.10;;
7377;SDS011;3730;50.856;12.776;2023-03-23T02:33:36;1.10;;;1.07;;
7377;SDS011;3730;50.856;12.776;2023-03-23T02:41:16;1.87;;;1.17;;
7377;SDS011;3730;50.856;12.776;2023-03-23T02:43:46;1.70;;;1.00;;
7377;SDS011;3730;50.856;12.776;2023-03-23T02:46:13;1.80;;;1.10;;
7377;SDS011;3730;50.856;12.776;2023-03-23T02:48:40;1.73;;;1.13;;
7377;SDS011;3730;50.856;12.776;2023-03-23T02:51:09;1.27;;;1.10;;
7377;SDS011;3730;50.856;12.776;2023-03-23T02:53:37;1.30;;;1.20;;
7377;SDS011;3730;50.856;12.776;2023-03-23T02:56:06;1.10;;;1.00;;
7377;SDS011;3730;50.856;12.776;2023-03-23T02:58:34;1.03;;;0.83;;
7377;SDS011;3730;50.856;12.776;2023-03-23T03:01:11;1.33;;;0.90;;
7377;SDS011;3730;50.856;12.776;2023-03-23T03:03:51;1.53;;;1.10;;
7377;SDS011;3730;50.856;12.776;2023-03-23T03:08:54;0.97;;;0.90;;
7377;SDS011;3730;50.856;12.776;2023-03-23T03:11:31;1.30;;;1.20;;
7377;SDS011;3730;50.856;12.776;2023-03-23T03:14:02;2.47;;;1.30;;
7377;SDS011;3730;50.856;12.776;2023-03-23T03:19:57;1.60;;;1.20;;
7377;SDS011;3730;50.856;12.776;2023-03-23T03:22:31;1.70;;;1.60;;
7377;SDS011;3730;50.856;12.776;2023-03-23T03:24:58;1.47;;;1.20;;
7377;SDS011;3730;50.856;12.776;2023-03-23T03:27:25;1.40;;;1.30;;
7377;SDS011;3730;50.856;12.776;2023-03-23T03:29:56;1.30;;;1.20;;
7377;SDS011;3730;50.856;12.776;2023-03-23T03:32:28;1.20;;;1.10;;
7377;SDS011;3730;50.856;12.776;2023-03-23T03:35:00;1.23;;;1.10;;
7377;SDS011;3730;50.856;12.776;2023-03-23T03:37:32;1.20;;;1.10;;
7377;SDS011;3730;50.856;12.776;2023-03-23T03:40:09;1.83;;;1.23;;
7377;SDS011;3730;50.856;12.776;2023-03-23T03:42:38;6.73;;;1.40;;
7377;SDS011;3730;50.856;12.776;2023-03-23T03:45:04;1.37;;;1.23;;
7377;SDS011;3730;50.856;12.776;2023-03-23T03:47:30;1.83;;;1.23;;
7377;SDS011;3730;50.856;12.776;2023-03-23T03:49:56;2.90;;;1.23;;
7377;SDS011;3730;50.856;12.776;2023-03-23T03:52:23;1.53;;;1.10;;
7377;SDS011;3730;50.856;12.776;2023-03-23T03:54:49;1.40;;;1.13;;
7377;SDS011;3730;50.856;12.776;2023-03-23T03:57:15;1.87;;;1.30;;
7377;SDS011;3730;50.856;12.776;2023-03-23T03:59:42;2.27;;;1.30;;
7377;SDS011;3730;50.856;12.776;2023-03-23T04:02:08;1.50;;;1.10;;
7377;SDS011;3730;50.856;12.776;2023-03-23T04:04:38;1.30;;;1.20;;
7377;SDS011;3730;50.856;12.776;2023-03-23T04:07:06;2.17;;;1.30;;
7377;SDS011;3730;50.856;12.776;2023-03-23T04:09:32;2.33;;;1.50;;
7377;SDS011;3730;50.856;12.776;2023-03-23T04:11:58;1.40;;;1.30;;
7377;SDS011;3730;50.856;12.776;2023-03-23T04:14:24;2.43;;;1.50;;
7377;SDS011;3730;50.856;12.776;2023-03-23T04:16:50;2.47;;;1.50;;
7377;SDS011;3730;50.856;12.776;2023-03-23T04:19:22;2.63;;;1.33;;
7377;SDS011;3730;50.856;12.776;2023-03-23T04:21:48;1.60;;;1.23;;
7377;SDS011;3730;50.856;12.776;2023-03-23T04:24:15;1.37;;;1.20;;
7377;SDS011;3730;50.856;12.776;2023-03-23T04:26:41;5.87;;;1.53;;
7377;SDS011;3730;50.856;12.776;2023-03-23T04:29:07;1.33;;;1.10;;
7377;SDS011;3730;50.856;12.776;2023-03-23T04:31:34;2.53;;;1.50;;
7377;SDS011;3730;50.856;12.776;2023-03-23T04:34:01;3.83;;;1.47;;
7377;SDS011;3730;50.856;12.776;2023-03-23T04:36:28;1.30;;;1.20;;
7377;SDS011;3730;50.856;12.776;2023-03-23T04:38:55;2.07;;;1.03;;
7377;SDS011;3730;50.856;12.776;2023-03-23T04:41:21;2.50;;;1.40;;
7377;SDS011;3730;50.856;12.776;2023-03-23T04:43:48;2.43;;;1.30;;
7377;SDS011;3730;50.856;12.776;2023-03-23T04:46:17;1.87;;;1.70;;
7377;SDS011;3730;50.856;12.776;2023-03-23T04:48:44;1.90;;;1.50;;
7377;SDS011;3730;50.856;12.776;2023-03-23T04:51:10;3.33;;;1.30;;
7377;SDS011;3730;50.856;12.776;2023-03-23T04:53:37;2.20;;;1.30;;
7377;SDS011;3730;50.856;12.776;2023-03-23T04:56:03;2.63;;;1.53;;
7377;SDS011;3730;50.856;12.776;2023-03-23T04:58:29;1.23;;;1.13;;
7377;SDS011;3730;50.856;12.776;2023-03-23T05:00:58;2.20;;;1.50;;
7377;SDS011;3730;50.856;12.776;2023-03-23T05:03:24;7.00;;;1.10;;
7377;SDS011;3730;50.856;12.776;2023-03-23T05:05:52;1.57;;;1.47;;
7377;SDS011;3730;50.856;12.776;2023-03-23T05:08:21;1.53;;;1.20;;
7377;SDS011;3730;50.856;12.776;2023-03-23T05:10:51;1.30;;;1.20;;
7377;SDS011;3730;50.856;12.776;2023-03-23T05:13:18;1.97;;;1.50;;
7377;SDS011;3730;50.856;12.776;2023-03-23T05:15:44;1.50;;;1.23;;
7377;SDS011;3730;50.856;12.776;2023-03-23T05:18:10;1.60;;;1.30;;
7377;SDS011;3730;50.856;12.776;2023-03-23T05:20:36;4.20;;;1.50;;
7377;SDS011;3730;50.856;12.776;2023-03-23T05:23:02;1.90;;;1.10;;
7377;SDS011;3730;50.856;12.776;2023-03-23T05:25:29;1.27;;;1.00;;
7377;SDS011;3730;50.856;12.776;2023-03-23T05:27:57;2.87;;;1.10;;
7377;SDS011;3730;50.856;12.776;2023-03-23T05:30:24;1.33;;;1.23;;
7377;SDS011;3730;50.856;12.776;2023-03-23T05:32:50;1.80;;;1.30;;
7377;SDS011;3730;50.856;12.776;2023-03-23T05:35:17;2.37;;;1.30;;
7377;SDS011;3730;50.856;12.776;2023-03-23T05:37:43;2.87;;;1.30;;
7377;SDS011;3730;50.856;12.776;2023-03-23T05:40:10;1.60;;;1.30;;
7377;SDS011;3730;50.856;12.776;2023-03-23T05:42:37;1.17;;;1.13;;
7377;SDS011;3730;50.856;12.776;2023-03-23T05:45:05;1.30;;;1.10;;
7377;SDS011;3730;50.856;12.776;2023-03-23T05:47:31;1.53;;;1.20;;
7377;SDS011;3730;50.856;12.776;2023-03-23T05:49:57;2.00;;;1.13;;
7377;SDS011;3730;50.856;12.776;2023-03-23T05:52:23;1.47;;;1.23;;
7377;SDS011;3730;50.856;12.776;2023-03-23T05:54:50;2.00;;;1.30;;
7377;SDS011;3730;50.856;12.776;2023-03-23T05:57:16;1.20;;;1.10;;
7377;SDS011;3730;50.856;12.776;2023-03-23T05:59:43;3.13;;;1.20;;
7377;SDS011;3730;50.856;12.776;2023-03-23T06:02:09;1.83;;;1.30;;
7377;SDS011;3730;50.856;12.776;2023-03-23T06:04:36;1.63;;;1.30;;
7377;SDS011;3730;50.856;12.776;2023-03-23T06:07:03;1.63;;;1.20;;
7377;SDS011;3730;50.856;12.776;2023-03-23T06:09:29;2.10;;;1.23;;
7377;SDS011;3730;50.856;12.776;2023-03-23T06:11:55;1.80;;;1.30;;
7377;SDS011;3730;50.856;12.776;2023-03-23T06:14:22;1.53;;;1.00;;
7377;SDS011;3730;50.856;12.776;2023-03-23T06:16:48;1.63;;;1.23;;
7377;SDS011;3730;50.856;12.776;2023-03-23T06:19:14;2.90;;;1.23;;
7377;SDS011;3730;50.856;12.776;2023-03-23T06:21:40;4.40;;;1.40;;
7377;SDS011;3730;50.856;12.776;2023-03-23T06:24:06;4.20;;;1.60;;
7377;SDS011;3730;50.856;12.776;2023-03-23T06:26:36;1.50;;;1.40;;
7377;SDS011;3730;50.856;12.776;2023-03-23T06:29:03;1.90;;;1.13;;
7377;SDS011;3730;50.856;12.776;2023-03-23T06:31:35;1.23;;;1.20;;
7377;SDS011;3730;50.856;12.776;2023-03-23T06:34:02;2.13;;;1.40;;
7377;SDS011;3730;50.856;12.776;2023-03-23T06:36:29;2.40;;;1.40;;
7377;SDS011;3730;50.856;12.776;2023-03-23T06:38:54;1.60;;;1.43;;
7377;SDS011;3730;50.856;12.776;2023-03-23T06:41:21;2.23;;;1.40;;
7377;SDS011;3730;50.856;12.776;2023-03-23T06:43:47;1.10;;;1.00;;
7377;SDS011;3730;50.856;12.776;2023-03-23T06:49:19;1.57;;;1.40;;
7377;SDS011;3730;50.856;12.776;2023-03-23T06:51:45;3.70;;;1.83;;
7377;SDS011;3730;50.856;12.776;2023-03-23T06:54:11;3.00;;;1.60;;
7377;SDS011;3730;50.856;12.776;2023-03-23T06:56:37;2.63;;;1.40;;
7377;SDS011;3730;50.856;12.776;2023-03-23T06:59:03;2.67;;;1.67;;
7377;SDS011;3730;50.856;12.776;2023-03-23T07:01:29;1.97;;;1.47;;
7377;SDS011;3730;50.856;12.776;2023-03-23T07:03:55;3.10;;;1.70;;
7377;SDS011;3730;50.856;12.776;2023-03-23T07:06:23;2.27;;;1.70;;
7377;SDS011;3730;50.856;12.776;2023-03-23T07:08:50;2.20;;;1.57;;
7377;SDS011;3730;50.856;12.776;2023-03-23T07:11:16;2.97;;;1.57;;
7377;SDS011;3730;50.856;12.776;2023-03-23T07:13:42;2.87;;;1.53;;
7377;SDS011;3730;50.856;12.776;2023-03-23T07:16:08;3.13;;;1.70;;
7377;SDS011;3730;50.856;12.776;2023-03-23T07:18:35;3.40;;;1.50;;
7377;SDS011;3730;50.856;12.776;2023-03-23T07:21:01;5.20;;;1.83;;
7377;SDS011;3730;50.856;12.776;2023-03-23T07:23:28;1.70;;;1.60;;
7377;SDS011;3730;50.856;12.776;2023-03-23T07:25:54;3.53;;;2.00;;
7377;SDS011;3730;50.856;12.776;2023-03-23T07:28:21;3.37;;;1.80;;
7377;SDS011;3730;50.856;12.776;2023-03-23T07:30:47;3.73;;;1.50;;
7377;SDS011;3730;50.856;12.776;2023-03-23T07:33:13;11.07;;;2.17;;
7377;SDS011;3730;50.856;12.776;2023-03-23T07:35:40;1.57;;;1.40;;
7377;SDS011;3730;50.856;12.776;2023-03-23T07:38:06;2.23;;;1.50;;
7377;SDS011;3730;50.856;12.776;2023-03-23T07:40:33;2.17;;;1.47;;
7377;SDS011;3730;50.856;12.776;2023-03-23T07:43:00;2.03;;;1.40;;
7377;SDS011;3730;50.856;12.776;2023-03-23T07:45:27;2.03;;;1.50;;
7377;SDS011;3730;50.856;12.776;2023-03-23T07:47:53;1.50;;;1.33;;
7377;SDS011;3730;50.856;12.776;2023-03-23T07:50:19;1.67;;;1.50;;
7377;SDS011;3730;50.856;12.776;2023-03-23T07:52:49;1.73;;;1.63;;
7377;SDS011;3730;50.856;12.776;2023-03-23T07:55:15;2.30;;;1.70;;
7377;SDS011;3730;50.856;12.776;2023-03-23T07:57:45;1.67;;;1.57;;
7377;SDS011;3730;50.856;12.776;2023-03-23T08:00:12;1.97;;;1.77;;
7377;SDS011;3730;50.856;12.776;2023-03-23T08:02:44;1.97;;;1.80;;
7377;SDS011;3730;50.856;12.776;2023-03-23T08:05:10;1.70;;;1.53;;
7377;SDS011;3730;50.856;12.776;2023-03-23T08:07:38;2.37;;;1.50;;
7377;SDS011;3730;50.856;12.776;2023-03-23T08:10:05;4.37;;;2.10;;
7377;SDS011;3730;50.856;12.776;2023-03-23T08:12:35;2.80;;;1.70;;
7377;SDS011;3730;50.856;12.776;2023-03-23T08:15:01;2.90;;;1.77;;
7377;SDS011;3730;50.856;12.776;2023-03-23T08:17:27;4.13;;;1.63;;
7377;SDS011;3730;50.856;12.776;2023-03-23T08:19:53;1.90;;;1.80;;
7377;SDS011;3730;50.856;12.776;2023-03-23T08:22:19;2.77;;;1.80;;
7377;SDS011;3730;50.856;12.776;2023-03-23T08:24:46;3.60;;;1.97;;
7377;SDS011;3730;50.856;12.776;2023-03-23T08:27:12;3.70;;;1.73;;
7377;SDS011;3730;50.856;12.776;2023-03-23T08:29:38;2.93;;;1.83;;
7377;SDS011;3730;50.856;12.776;2023-03-23T08:32:04;2.37;;;1.80;;
7377;SDS011;3730;50.856;12.776;2023-03-23T08:34:30;1.90;;;1.70;;
7377;SDS011;3730;50.856;12.776;2023-03-23T08:36:56;2.20;;;1.77;;
7377;SDS011;3730;50.856;12.776;2023-03-23T08:39:22;2.07;;;1.70;;
7377;SDS011;3730;50.856;12.776;2023-03-23T08:41:48;2.40;;;2.10;;
7377;SDS011;3730;50.856;12.776;2023-03-23T08:44:14;3.83;;;1.70;;
7377;SDS011;3730;50.856;12.776;2023-03-23T08:46:40;3.63;;;2.20;;
7377;SDS011;3730;50.856;12.776;2023-03-23T08:49:06;2.53;;;1.80;;
7377;SDS011;3730;50.856;12.776;2023-03-23T08:51:33;3.47;;;1.90;;
7377;SDS011;3730;50.856;12.776;2023-03-23T08:53:59;1.93;;;1.83;;
7377;SDS011;3730;50.856;12.776;2023-03-23T08:56:25;2.63;;;1.80;;
7377;SDS011;3730;50.856;12.776;2023-03-23T08:58:52;2.53;;;1.70;;
7377;SDS011;3730;50.856;12.776;2023-03-23T09:01:18;2.93;;;2.00;;
7377;SDS011;3730;50.856;12.776;2023-03-23T09:03:45;4.73;;;2.00;;
7377;SDS011;3730;50.856;12.776;2023-03-23T09:06:11;6.87;;;1.80;;
7377;SDS011;3730;50.856;12.776;2023-03-23T09:08:37;2.23;;;2.00;;
7377;SDS011;3730;50.856;12.776;2023-03-23T09:11:05;2.43;;;1.63;;
7377;SDS011;3730;50.856;12.776;2023-03-23T09:13:32;4.87;;;2.00;;
7377;SDS011;3730;50.856;12.776;2023-03-23T09:15:58;2.30;;;1.90;;
7377;SDS011;3730;50.856;12.776;2023-03-23T09:18:24;10.37;;;2.43;;
7377;SDS011;3730;50.856;12.776;2023-03-23T09:20:50;2.80;;;1.83;;
7377;SDS011;3730;50.856;12.776;2023-03-23T09:23:17;2.07;;;1.60;;
7377;SDS011;3730;50.856;12.776;2023-03-23T09:25:43;2.20;;;2.00;;
7377;SDS011;3730;50.856;12.776;2023-03-23T09:28:09;4.50;;;1.90;;
7377;SDS011;3730;50.856;12.776;2023-03-23T09:30:36;1.93;;;1.83;;
7377;SDS011;3730;50.856;12.776;2023-03-23T09:33:03;2.33;;;2.07;;
7377;SDS011;3730;50.856;12.776;2023-03-23T09:35:30;2.97;;;1.70;;
7377;SDS011;3730;50.856;12.776;2023-03-23T09:37:56;2.20;;;1.87;;
7377;SDS011;3730;50.856;12.776;2023-03-23T09:40:27;2.10;;;1.90;;
7377;SDS011;3730;50.856;12.776;2023-03-23T09:50:58;2.00;;;1.80;;
7377;SDS011;3730;50.856;12.776;2023-03-23T09:56:30;2.47;;;1.63;;
7377;SDS011;3730;50.856;12.776;2023-03-23T10:01:49;1.67;;;1.57;;
7377;SDS011;3730;50.856;12.776;2023-03-23T10:07:14;1.90;;;1.70;;
7377;SDS011;3730;50.856;12.776;2023-03-23T10:09:41;1.80;;;1.57;;
7377;SDS011;3730;50.856;12.776;2023-03-23T10:12:17;2.20;;;1.43;;
7377;SDS011;3730;50.856;12.776;2023-03-23T10:14:51;1.97;;;1.77;;
7377;SDS011;3730;50.856;12.776;2023-03-23T10:17:22;2.40;;;1.33;;
7377;SDS011;3730;50.856;12.776;2023-03-23T10:22:27;3.63;;;1.60;;
7377;SDS011;3730;50.856;12.776;2023-03-23T10:30:18;1.50;;;1.37;;
7377;SDS011;3730;50.856;12.776;2023-03-23T10:32:47;1.80;;;1.70;;
7377;SDS011;3730;50.856;12.776;2023-03-23T10:35:50;1.90;;;1.70;;
7377;SDS011;3730;50.856;12.776;2023-03-23T10:38:19;2.87;;;1.70;;
7377;SDS011;3730;50.856;12.776;2023-03-23T10:40:48;2.73;;;1.40;;
7377;SDS011;3730;50.856;12.776;2023-03-23T10:43:15;2.20;;;1.50;;
7377;SDS011;3730;50.856;12.776;2023-03-23T10:45:41;2.43;;;1.60;;
7377;SDS011;3730;50.856;12.776;2023-03-23T10:50:39;2.73;;;1.90;;
7377;SDS011;3730;50.856;12.776;2023-03-23T10:53:16;3.20;;;1.67;;
7377;SDS011;3730;50.856;12.776;2023-03-23T10:55:42;1.50;;;1.40;;
7377;SDS011;3730;50.856;12.776;2023-03-23T10:58:11;1.63;;;1.50;;
7377;SDS011;3730;50.856;12.776;2023-03-23T11:00:44;1.60;;;1.50;;
7377;SDS011;3730;50.856;12.776;2023-03-23T11:05:53;1.60;;;1.50;;
7377;SDS011;3730;50.856;12.776;2023-03-23T11:08:23;2.70;;;1.77;;
7377;SDS011;3730;50.856;12.776;2023-03-23T11:10:52;1.93;;;1.40;;
7377;SDS011;3730;50.856;12.776;2023-03-23T11:13:19;7.13;;;1.60;;
7377;SDS011;3730;50.856;12.776;2023-03-23T11:15:46;2.13;;;1.53;;
7377;SDS011;3730;50.856;12.776;2023-03-23T11:18:13;3.83;;;1.70;;
7377;SDS011;3730;50.856;12.776;2023-03-23T11:20:44;1.87;;;1.73;;
7377;SDS011;3730;50.856;12.776;2023-03-23T11:25:56;4.90;;;1.50;;
7377;SDS011;3730;50.856;12.776;2023-03-23T11:28:25;2.70;;;1.40;;
7377;SDS011;3730;50.856;12.776;2023-03-23T11:30:53;1.73;;;1.63;;
7377;SDS011;3730;50.856;12.776;2023-03-23T11:33:19;3.30;;;1.87;;
7377;SDS011;3730;50.856;12.776;2023-03-23T11:35:45;2.93;;;1.50;;
7377;SDS011;3730;50.856;12.776;2023-03-23T11:38:17;2.27;;;1.83;;
7377;SDS011;3730;50.856;12.776;2023-03-23T11:40:47;3.00;;;1.73;;
7377;SDS011;3730;50.856;12.776;2023-03-23T11:43:14;1.60;;;1.50;;
7377;SDS011;3730;50.856;12.776;2023-03-23T11:45:46;2.97;;;1.83;;
7377;SDS011;3730;50.856;12.776;2023-03-23T11:48:22;2.77;;;1.77;;
7377;SDS011;3730;50.856;12.776;2023-03-23T11:51:04;2.37;;;1.90;;
7377;SDS011;3730;50.856;12.776;2023-03-23T11:58:35;3.90;;;2.10;;
7377;SDS011;3730;50.856;12.776;2023-03-23T12:06:54;3.07;;;1.83;;
7377;SDS011;3730;50.856;12.776;2023-03-23T12:09:13;2.10;;;1.50;;
7377;SDS011;3730;50.856;12.776;2023-03-23T12:11:48;1.97;;;1.77;;
7377;SDS011;3730;50.856;12.776;2023-03-23T12:16:48;2.00;;;1.80;;
7377;SDS011;3730;50.856;12.776;2023-03-23T12:19:23;2.23;;;1.93;;
7377;SDS011;3730;50.856;12.776;2023-03-23T12:24:59;4.10;;;1.90;;
7377;SDS011;3730;50.856;12.776;2023-03-23T12:32:58;2.27;;;1.80;;
7377;SDS011;3730;50.856;12.776;2023-03-23T12:36:18;3.27;;;2.00;;
7377;SDS011;3730;50.856;12.776;2023-03-23T12:38:26;2.40;;;1.80;;
7377;SDS011;3730;50.856;12.776;2023-03-23T12:46:08;1.50;;;1.40;;
7377;SDS011;3730;50.856;12.776;2023-03-23T12:48:41;2.07;;;1.47;;
7377;SDS011;3730;50.856;12.776;2023-03-23T12:56:35;2.17;;;1.30;;
7377;SDS011;3730;50.856;12.776;2023-03-23T12:59:06;1.53;;;1.30;;
7377;SDS011;3730;50.856;12.776;2023-03-23T13:01:37;1.67;;;1.10;;
7377;SDS011;3730;50.856;12.776;2023-03-23T13:06:40;1.10;;;1.00;;
7377;SDS011;3730;50.856;12.776;2023-03-23T13:11:53;1.53;;;1.10;;
7377;SDS011;3730;50.856;12.776;2023-03-23T13:22:15;1.23;;;1.13;;
7377;SDS011;3730;50.856;12.776;2023-03-23T13:25:06;1.23;;;0.90;;
7377;SDS011;3730;50.856;12.776;2023-03-23T13:27:30;1.23;;;1.13;;
7377;SDS011;3730;50.856;12.776;2023-03-23T13:29:56;1.20;;;1.10;;
7377;SDS011;3730;50.856;12.776;2023-03-23T13:32:36;1.80;;;1.20;;
7377;SDS011;3730;50.856;12.776;2023-03-23T13:35:03;1.30;;;1.20;;
7377;SDS011;3730;50.856;12.776;2023-03-23T13:37:31;2.57;;;1.50;;
7377;SDS011;3730;50.856;12.776;2023-03-23T13:40:23;9.80;;;1.53;;
7377;SDS011;3730;50.856;12.776;2023-03-23T13:42:48;1.20;;;1.10;;
7377;SDS011;3730;50.856;12.776;2023-03-23T13:48:02;1.50;;;1.40;;
7377;SDS011;3730;50.856;12.776;2023-03-23T13:50:28;1.30;;;1.20;;
7377;SDS011;3730;50.856;12.776;2023-03-23T13:52:58;3.47;;;1.50;;
7377;SDS011;3730;50.856;12.776;2023-03-23T13:57:55;4.27;;;1.60;;
7377;SDS011;3730;50.856;12.776;2023-03-23T14:03:00;1.57;;;1.47;;
7377;SDS011;3730;50.856;12.776;2023-03-23T14:05:32;3.73;;;1.30;;
7377;SDS011;3730;50.856;12.776;2023-03-23T14:08:45;2.60;;;1.43;;
7377;SDS011;3730;50.856;12.776;2023-03-23T14:10:53;2.27;;;1.63;;
7377;SDS011;3730;50.856;12.776;2023-03-23T14:13:29;1.83;;;1.40;;
7377;SDS011;3730;50.856;12.776;2023-03-23T14:15:57;1.50;;;1.30;;
7377;SDS011;3730;50.856;12.776;2023-03-23T14:18:25;3.17;;;1.40;;
7377;SDS011;3730;50.856;12.776;2023-03-23T14:20:52;2.57;;;1.30;;
7377;SDS011;3730;50.856;12.776;2023-03-23T14:23:19;2.27;;;1.40;;
7377;SDS011;3730;50.856;12.776;2023-03-23T14:25:53;1.57;;;1.47;;
7377;SDS011;3730;50.856;12.776;2023-03-23T14:28:21;1.23;;;1.00;;
7377;SDS011;3730;50.856;12.776;2023-03-23T14:30:48;5.13;;;1.30;;
7377;SDS011;3730;50.856;12.776;2023-03-23T14:33:18;1.50;;;1.27;;
7377;SDS011;3730;50.856;12.776;2023-03-23T14:35:45;1.33;;;1.23;;
7377;SDS011;3730;50.856;12.776;2023-03-23T14:38:17;1.00;;;0.90;;
7377;SDS011;3730;50.856;12.776;2023-03-23T14:40:43;3.70;;;1.00;;
7377;SDS011;3730;50.856;12.776;2023-03-23T14:43:10;1.57;;;1.00;;
7377;SDS011;3730;50.856;12.776;2023-03-23T14:45:40;1.50;;;0.87;;
7377;SDS011;3730;50.856;12.776;2023-03-23T14:48:06;1.27;;;1.13;;
7377;SDS011;3730;50.856;12.776;2023-03-23T14:50:40;0.80;;;0.80;;
7377;SDS011;3730;50.856;12.776;2023-03-23T14:53:23;0.90;;;0.90;;
7377;SDS011;3730;50.856;12.776;2023-03-23T14:55:54;3.57;;;1.00;;
7377;SDS011;3730;50.856;12.776;2023-03-23T14:58:22;1.10;;;1.00;;
7377;SDS011;3730;50.856;12.776;2023-03-23T15:00:57;0.90;;;0.90;;
7377;SDS011;3730;50.856;12.776;2023-03-23T15:03:33;1.17;;;0.93;;
7377;SDS011;3730;50.856;12.776;2023-03-23T15:06:03;1.00;;;1.00;;
7377;SDS011;3730;50.856;12.776;2023-03-23T15:08:32;1.03;;;0.90;;
7377;SDS011;3730;50.856;12.776;2023-03-23T15:13:51;1.37;;;1.10;;
7377;SDS011;3730;50.856;12.776;2023-03-23T15:18:50;1.60;;;1.20;;
7377;SDS011;3730;50.856;12.776;2023-03-23T15:21:31;1.23;;;1.10;;
7377;SDS011;3730;50.856;12.776;2023-03-23T15:24:02;1.27;;;0.87;;
7377;SDS011;3730;50.856;12.776;2023-03-23T15:27:16;4.70;;;1.00;;
7377;SDS011;3730;50.856;12.776;2023-03-23T15:29:54;1.33;;;0.80;;
7377;SDS011;3730;50.856;12.776;2023-03-23T15:32:29;0.80;;;0.80;;
7377;SDS011;3730;50.856;12.776;2023-03-23T15:35:03;1.83;;;0.90;;
7377;SDS011;3730;50.856;12.776;2023-03-23T15:37:36;1.17;;;1.07;;
7377;SDS011;3730;50.856;12.776;2023-03-23T15:40:13;1.73;;;0.87;;
7377;SDS011;3730;50.856;12.776;2023-03-23T15:42:44;1.13;;;0.90;;
7377;SDS011;3730;50.856;12.776;2023-03-23T15:47:46;1.03;;;0.87;;
7377;SDS011;3730;50.856;12.776;2023-03-23T15:50:14;1.10;;;0.90;;
7377;SDS011;3730;50.856;12.776;2023-03-23T15:52:41;0.77;;;0.77;;
7377;SDS011;3730;50.856;12.776;2023-03-23T15:57:52;1.90;;;0.80;;
7377;SDS011;3730;50.856;12.776;2023-03-23T16:00:19;2.40;;;0.90;;
7377;SDS011;3730;50.856;12.776;2023-03-23T16:02:46;0.83;;;0.83;;
7377;SDS011;3730;50.856;12.776;2023-03-23T16:05:13;2.20;;;0.90;;
7377;SDS011;3730;50.856;12.776;2023-03-23T16:07:39;1.07;;;1.00;;
7377;SDS011;3730;50.856;12.776;2023-03-23T16:10:05;1.23;;;1.00;;
7377;SDS011;3730;50.856;12.776;2023-03-23T16:12:32;0.63;;;0.60;;
7377;SDS011;3730;50.856;12.776;2023-03-23T16:14:58;0.80;;;0.80;;
7377;SDS011;3730;50.856;12.776;2023-03-23T16:17:24;0.80;;;0.80;;
7377;SDS011;3730;50.856;12.776;2023-03-23T16:19:50;2.57;;;0.80;;
7377;SDS011;3730;50.856;12.776;2023-03-23T16:22:16;6.90;;;0.90;;
7377;SDS011;3730;50.856;12.776;2023-03-23T16:24:42;0.90;;;0.90;;
7377;SDS011;3730;50.856;12.776;2023-03-23T16:27:09;1.63;;;1.00;;
7377;SDS011;3730;50.856;12.776;2023-03-23T16:29:35;2.23;;;1.50;;
7377;SDS011;3730;50.856;12.776;2023-03-23T16:32:01;1.30;;;0.93;;
7377;SDS011;3730;50.856;12.776;2023-03-23T16:34:26;1.17;;;1.00;;
7377;SDS011;3730;50.856;12.776;2023-03-23T16:36:56;1.70;;;0.90;;
7377;SDS011;3730;50.856;12.776;2023-03-23T16:39:22;1.10;;;0.87;;
7377;SDS011;3730;50.856;12.776;2023-03-23T16:41:48;1.00;;;1.00;;
7377;SDS011;3730;50.856;12.776;2023-03-23T16:44:15;1.37;;;1.10;;
7377;SDS011;3730;50.856;12.776;2023-03-23T16:46:41;1.33;;;1.10;;
7377;SDS011;3730;50.856;12.776;2023-03-23T16:49:07;1.20;;;1.10;;
7377;SDS011;3730;50.856;12.776;2023-03-23T16:51:33;1.17;;;1.07;;
7377;SDS011;3730;50.856;12.776;2023-03-23T16:53:59;1.10;;;1.00;;
7377;SDS011;3730;50.856;12.776;2023-03-23T16:56:25;2.90;;;1.50;;
7377;SDS011;3730;50.856;12.776;2023-03-23T16:58:51;4.90;;;1.50;;
7377;SDS011;3730;50.856;12.776;2023-03-23T17:01:17;2.00;;;1.50;;
7377;SDS011;3730;50.856;12.776;2023-03-23T17:03:43;3.83;;;1.37;;
7377;SDS011;3730;50.856;12.776;2023-03-23T17:06:09;1.87;;;1.20;;
7377;SDS011;3730;50.856;12.776;2023-03-23T17:08:35;1.40;;;1.30;;
7377;SDS011;3730;50.856;12.776;2023-03-23T17:11:01;1.30;;;1.20;;
7377;SDS011;3730;50.856;12.776;2023-03-23T17:13:27;1.40;;;1.30;;